sensor_id;sensor_type;location;lat;lon;timestamp;temperature;humidity
38458;DHT22;24239;48.058;10.486;2023-05-20T00:00:50;11.20;99.90
38458;DHT22;24239;48.058;10.486;2023-05-20T00:03:18;11.20;99.90
38458;DHT22;24239;48.058;10.486;2023-05-20T00:05:47;11.20;99.90
38458;DHT22;24239;48.058;10.486;2023-05-20T00:08:13;11.20;99.90
38458;DHT22;24239;48.058;10.486;2023-05-20T00:10:41;11.10;99.90
38458;DHT22;24239;48.058;10.486;2023-05-20T00:13:08;11.10;99.90
38458;DHT22;24239;48.058;10.486;2023-05-20T00:15:37;11.00;99.90
38458;DHT22;24239;48.058;10.486;2023-05-20T00:18:04;11.10;99.90
38458;DHT22;24239;48.058;10.486;2023-05-20T00:20:31;11.10;99.90
38458;DHT22;24239;48.058;10.486;2023-05-20T00:22:58;11.00;99.90
38458;DHT22;24239;48.058;10.486;2023-05-20T00:25:23;11.00;99.90
38458;DHT22;24239;48.058;10.486;2023-05-20T00:27:49;11.00;99.90
38458;DHT22;24239;48.058;10.486;2023-05-20T00:30:16;11.10;99.90
38458;DHT22;24239;48.058;10.486;2023-05-20T00:32:44;11.10;99.90
38458;DHT22;24239;48.058;10.486;2023-05-20T00:35:13;11.10;99.90
38458;DHT22;24239;48.058;10.486;2023-05-20T00:37:42;11.20;99.90
38458;DHT22;24239;48.058;10.486;2023-05-20T00:40:09;11.10;99.90
38458;DHT22;24239;48.058;10.486;2023-05-20T00:42:34;11.10;99.90
38458;DHT22;24239;48.058;10.486;2023-05-20T00:45:01;11.10;99.90
38458;DHT22;24239;48.058;10.486;2023-05-20T00:47:31;11.10;99.90
38458;DHT22;24239;48.058;10.486;2023-05-20T00:49:58;11.10;99.90
38458;DHT22;24239;48.058;10.486;2023-05-20T00:52:24;11.10;99.90
38458;DHT22;24239;48.058;10.486;2023-05-20T00:54:50;11.00;99.90
38458;DHT22;24239;48.058;10.486;2023-05-20T00:57:18;11.10;99.90
38458;DHT22;24239;48.058;10.486;2023-05-20T00:59:44;11.10;99.90
38458;DHT22;24239;48.058;10.486;2023-05-20T01:02:13;11.10;99.90
38458;DHT22;24239;48.058;10.486;2023-05-20T01:04:39;11.10;99.90
38458;DHT22;24239;48.058;10.486;2023-05-20T01:07:07;11.00;99.90
38458;DHT22;24239;48.058;10.486;2023-05-20T01:09:36;11.00;99.90
38458;DHT22;24239;48.058;10.486;2023-05-20T01:12:03;11.10;99.90
38458;DHT22;24239;48.058;10.486;2023-05-20T01:14:32;11.10;99.90
38458;DHT22;24239;48.058;10.486;2023-05-20T01:17:03;11.20;99.90
38458;DHT22;24239;48.058;10.486;2023-05-20T01:19:46;11.10;99.90
38458;DHT22;24239;48.058;10.486;2023-05-20T01:22:14;11.00;99.90
38458;DHT22;24239;48.058;10.486;2023-05-20T01:27:09;11.10;99.90
38458;DHT22;24239;48.058;10.486;2023-05-20T01:29:36;11.10;99.90
38458;DHT22;24239;48.058;10.486;2023-05-20T01:32:15;11.10;99.90
38458;DHT22;24239;48.058;10.486;2023-05-20T01:34:42;11.10;99.90
38458;DHT22;24239;48.058;10.486;2023-05-20T01:37:09;11.10;99.90
38458;DHT22;24239;48.058;10.486;2023-05-20T01:39:38;11.10;99.90
38458;DHT22;24239;48.058;10.486;2023-05-20T01:42:06;11.10;99.90
38458;DHT22;24239;48.058;10.486;2023-05-20T01:44:33;11.10;99.90
38458;DHT22;24239;48.058;10.486;2023-05-20T01:47:02;11.20;99.90
38458;DHT22;24239;48.058;10.486;2023-05-20T01:49:31;11.10;99.90
38458;DHT22;24239;48.058;10.486;2023-05-20T01:51:57;11.20;99.90
38458;DHT22;24239;48.058;10.486;2023-05-20T01:54:24;11.20;99.90
38458;DHT22;24239;48.058;10.486;2023-05-20T01:56:50;11.10;99.90
38458;DHT22;24239;48.058;10.486;2023-05-20T01:59:16;11.10;99.90
38458;DHT22;24239;48.058;10.486;2023-05-20T02:01:42;11.20;99.90
38458;DHT22;24239;48.058;10.486;2023-05-20T02:04:09;11.20;99.90
38458;DHT22;24239;48.058;10.486;2023-05-20T02:06:35;11.20;99.90
38458;DHT22;24239;48.058;10.486;2023-05-20T02:09:00;11.20;99.90
38458;DHT22;24239;48.058;10.486;2023-05-20T02:11:26;11.30;99.90
38458;DHT22;24239;48.058;10.486;2023-05-20T02:13:56;11.30;99.90
38458;DHT22;24239;48.058;10.486;2023-05-20T02:16:22;11.30;99.90
38458;DHT22;24239;48.058;10.486;2023-05-20T02:18:48;11.30;99.90
38458;DHT22;24239;48.058;10.486;2023-05-20T02:21:17;11.30;99.90
38458;DHT22;24239;48.058;10.486;2023-05-20T02:23:42;11.30;99.90
38458;DHT22;24239;48.058;10.486;2023-05-20T02:26:08;11.40;99.90
38458;DHT22;24239;48.058;10.486;2023-05-20T02:28:33;11.40;99.90
38458;DHT22;24239;48.058;10.486;2023-05-20T02:30:59;11.30;99.90
38458;DHT22;24239;48.058;10.486;2023-05-20T02:33:25;11.40;99.90
38458;DHT22;24239;48.058;10.486;2023-05-20T02:35:53;11.40;99.90
38458;DHT22;24239;48.058;10.486;2023-05-20T02:38:18;11.40;99.90
38458;DHT22;24239;48.058;10.486;2023-05-20T02:40:44;11.40;99.90
38458;DHT22;24239;48.058;10.486;2023-05-20T02:43:12;11.40;99.90
38458;DHT22;24239;48.058;10.486;2023-05-20T02:45:37;11.50;99.90
38458;DHT22;24239;48.058;10.486;2023-05-20T02:48:03;11.50;99.90
38458;DHT22;24239;48.058;10.486;2023-05-20T02:50:29;11.40;99.90
38458;DHT22;24239;48.058;10.486;2023-05-20T02:52:55;11.40;99.90
38458;DHT22;24239;48.058;10.486;2023-05-20T02:55:23;11.40;99.90
38458;DHT22;24239;48.058;10.486;2023-05-20T02:57:49;11.40;99.90
38458;DHT22;24239;48.058;10.486;2023-05-20T03:00:16;11.30;99.90
38458;DHT22;24239;48.058;10.486;2023-05-20T03:02:43;11.40;99.90
38458;DHT22;24239;48.058;10.486;2023-05-20T03:05:08;11.40;99.90
38458;DHT22;24239;48.058;10.486;2023-05-20T03:07:36;11.40;99.90
38458;DHT22;24239;48.058;10.486;2023-05-20T03:10:03;11.40;99.90
38458;DHT22;24239;48.058;10.486;2023-05-20T03:12:30;11.40;99.90
38458;DHT22;24239;48.058;10.486;2023-05-20T03:14:56;11.40;99.90
38458;DHT22;24239;48.058;10.486;2023-05-20T03:17:25;11.40;99.90
38458;DHT22;24239;48.058;10.486;2023-05-20T03:19:51;11.40;99.90
38458;DHT22;24239;48.058;10.486;2023-05-20T03:22:16;11.30;99.90
38458;DHT22;24239;48.058;10.486;2023-05-20T03:24:42;11.30;99.90
38458;DHT22;24239;48.058;10.486;2023-05-20T03:27:08;11.30;99.90
38458;DHT22;24239;48.058;10.486;2023-05-20T03:29:34;11.30;99.90
38458;DHT22;24239;48.058;10.486;2023-05-20T03:31:59;11.30;99.90
38458;DHT22;24239;48.058;10.486;2023-05-20T03:34:25;11.30;99.90
38458;DHT22;24239;48.058;10.486;2023-05-20T03:36:57;11.30;99.90
38458;DHT22;24239;48.058;10.486;2023-05-20T03:39:24;11.30;99.90
38458;DHT22;24239;48.058;10.486;2023-05-20T03:41:52;11.30;99.90
38458;DHT22;24239;48.058;10.486;2023-05-20T03:44:19;11.30;99.90
38458;DHT22;24239;48.058;10.486;2023-05-20T03:46:46;11.30;99.90
38458;DHT22;24239;48.058;10.486;2023-05-20T03:49:12;11.30;99.90
38458;DHT22;24239;48.058;10.486;2023-05-20T03:51:39;11.20;99.90
38458;DHT22;24239;48.058;10.486;2023-05-20T03:54:07;11.20;99.90
38458;DHT22;24239;48.058;10.486;2023-05-20T03:56:35;11.20;99.90
38458;DHT22;24239;48.058;10.486;2023-05-20T03:59:02;11.20;99.90
38458;DHT22;24239;48.058;10.486;2023-05-20T04:01:29;11.20;99.90
38458;DHT22;24239;48.058;10.486;2023-05-20T04:03:56;11.20;99.90
38458;DHT22;24239;48.058;10.486;2023-05-20T04:06:24;11.20;99.90
38458;DHT22;24239;48.058;10.486;2023-05-20T04:08:52;11.30;99.90
38458;DHT22;24239;48.058;10.486;2023-05-20T04:11:20;11.20;99.90
38458;DHT22;24239;48.058;10.486;2023-05-20T04:13:45;11.20;99.90
38458;DHT22;24239;48.058;10.486;2023-05-20T04:16:14;11.20;99.90
38458;DHT22;24239;48.058;10.486;2023-05-20T04:18:43;11.20;99.90
38458;DHT22;24239;48.058;10.486;2023-05-20T04:21:10;11.30;99.90
38458;DHT22;24239;48.058;10.486;2023-05-20T04:23:36;11.20;99.90
38458;DHT22;24239;48.058;10.486;2023-05-20T04:26:01;11.20;99.90
38458;DHT22;24239;48.058;10.486;2023-05-20T04:28:29;11.20;99.90
38458;DHT22;24239;48.058;10.486;2023-05-20T04:30:59;11.10;99.90
38458;DHT22;24239;48.058;10.486;2023-05-20T04:33:26;11.20;99.90
38458;DHT22;24239;48.058;10.486;2023-05-20T04:35:52;11.20;99.90
38458;DHT22;24239;48.058;10.486;2023-05-20T04:38:24;11.30;99.90
38458;DHT22;24239;48.058;10.486;2023-05-20T04:41:00;11.20;99.90
38458;DHT22;24239;48.058;10.486;2023-05-20T04:43:27;11.20;99.90
38458;DHT22;24239;48.058;10.486;2023-05-20T04:45:57;11.30;99.90
38458;DHT22;24239;48.058;10.486;2023-05-20T04:48:24;11.20;99.90
38458;DHT22;24239;48.058;10.486;2023-05-20T04:50:50;11.30;99.90
38458;DHT22;24239;48.058;10.486;2023-05-20T04:53:18;11.30;99.90
38458;DHT22;24239;48.058;10.486;2023-05-20T04:55:46;11.30;99.90
38458;DHT22;24239;48.058;10.486;2023-05-20T04:58:14;11.30;99.90
38458;DHT22;24239;48.058;10.486;2023-05-20T05:00:42;11.30;99.90
38458;DHT22;24239;48.058;10.486;2023-05-20T05:03:08;11.30;99.90
38458;DHT22;24239;48.058;10.486;2023-05-20T05:05:35;11.30;99.90
38458;DHT22;24239;48.058;10.486;2023-05-20T05:08:05;11.40;99.90
38458;DHT22;24239;48.058;10.486;2023-05-20T05:10:41;11.40;99.90
38458;DHT22;24239;48.058;10.486;2023-05-20T05:13:06;11.40;99.90
38458;DHT22;24239;48.058;10.486;2023-05-20T05:15:32;11.40;99.90
38458;DHT22;24239;48.058;10.486;2023-05-20T05:17:58;11.30;99.90
38458;DHT22;24239;48.058;10.486;2023-05-20T05:20:24;11.40;99.90
38458;DHT22;24239;48.058;10.486;2023-05-20T05:22:52;11.30;99.90
38458;DHT22;24239;48.058;10.486;2023-05-20T05:25:17;11.30;99.90
38458;DHT22;24239;48.058;10.486;2023-05-20T05:27:43;11.40;99.90
38458;DHT22;24239;48.058;10.486;2023-05-20T05:30:09;11.40;99.90
38458;DHT22;24239;48.058;10.486;2023-05-20T05:32:35;11.40;99.90
38458;DHT22;24239;48.058;10.486;2023-05-20T05:35:01;11.40;99.90
38458;DHT22;24239;48.058;10.486;2023-05-20T05:37:28;11.40;99.90
38458;DHT22;24239;48.058;10.486;2023-05-20T05:39:53;11.40;99.90
38458;DHT22;24239;48.058;10.486;2023-05-20T05:42:19;11.40;99.90
38458;DHT22;24239;48.058;10.486;2023-05-20T05:44:44;11.40;99.90
38458;DHT22;24239;48.058;10.486;2023-05-20T05:47:10;11.30;99.90
38458;DHT22;24239;48.058;10.486;2023-05-20T05:49:36;11.40;99.90
38458;DHT22;24239;48.058;10.486;2023-05-20T05:52:02;11.40;99.90
38458;DHT22;24239;48.058;10.486;2023-05-20T05:54:30;11.40;99.90
38458;DHT22;24239;48.058;10.486;2023-05-20T05:56:57;11.50;99.90
38458;DHT22;24239;48.058;10.486;2023-05-20T05:59:23;11.60;99.90
38458;DHT22;24239;48.058;10.486;2023-05-20T06:01:49;11.50;99.90
38458;DHT22;24239;48.058;10.486;2023-05-20T06:04:15;11.50;99.90
38458;DHT22;24239;48.058;10.486;2023-05-20T06:06:42;11.50;99.90
38458;DHT22;24239;48.058;10.486;2023-05-20T06:09:07;11.50;99.90
38458;DHT22;24239;48.058;10.486;2023-05-20T06:11:33;11.40;99.90
38458;DHT22;24239;48.058;10.486;2023-05-20T06:13:59;11.40;99.90
38458;DHT22;24239;48.058;10.486;2023-05-20T06:16:25;11.50;99.90
38458;DHT22;24239;48.058;10.486;2023-05-20T06:18:52;11.50;99.90
38458;DHT22;24239;48.058;10.486;2023-05-20T06:21:21;11.60;99.90
38458;DHT22;24239;48.058;10.486;2023-05-20T06:23:47;11.60;99.90
38458;DHT22;24239;48.058;10.486;2023-05-20T06:26:12;11.70;99.90
38458;DHT22;24239;48.058;10.486;2023-05-20T06:28:39;11.70;99.90
38458;DHT22;24239;48.058;10.486;2023-05-20T06:31:05;11.80;99.90
38458;DHT22;24239;48.058;10.486;2023-05-20T06:33:31;11.80;99.90
38458;DHT22;24239;48.058;10.486;2023-05-20T06:35:58;11.80;99.90
38458;DHT22;24239;48.058;10.486;2023-05-20T06:38:27;11.80;99.90
38458;DHT22;24239;48.058;10.486;2023-05-20T06:40:52;11.80;99.90
38458;DHT22;24239;48.058;10.486;2023-05-20T06:43:18;11.90;99.90
38458;DHT22;24239;48.058;10.486;2023-05-20T06:45:46;11.80;99.90
38458;DHT22;24239;48.058;10.486;2023-05-20T06:48:12;11.90;99.90
38458;DHT22;24239;48.058;10.486;2023-05-20T06:50:37;11.90;99.90
38458;DHT22;24239;48.058;10.486;2023-05-20T06:53:03;11.90;99.90
38458;DHT22;24239;48.058;10.486;2023-05-20T06:55:29;11.90;99.90
38458;DHT22;24239;48.058;10.486;2023-05-20T06:57:55;11.90;99.90
38458;DHT22;24239;48.058;10.486;2023-05-20T07:00:24;12.00;99.90
38458;DHT22;24239;48.058;10.486;2023-05-20T07:02:51;12.10;99.90
38458;DHT22;24239;48.058;10.486;2023-05-20T07:05:18;12.20;99.90
38458;DHT22;24239;48.058;10.486;2023-05-20T07:07:45;12.30;99.90
38458;DHT22;24239;48.058;10.486;2023-05-20T07:10:10;12.40;99.90
38458;DHT22;24239;48.058;10.486;2023-05-20T07:12:38;12.40;99.90
38458;DHT22;24239;48.058;10.486;2023-05-20T07:15:04;12.50;99.90
38458;DHT22;24239;48.058;10.486;2023-05-20T07:17:31;12.70;99.90
38458;DHT22;24239;48.058;10.486;2023-05-20T07:19:57;12.70;99.90
38458;DHT22;24239;48.058;10.486;2023-05-20T07:22:25;12.70;99.90
38458;DHT22;24239;48.058;10.486;2023-05-20T07:24:50;13.00;99.90
38458;DHT22;24239;48.058;10.486;2023-05-20T07:27:20;13.00;99.90
38458;DHT22;24239;48.058;10.486;2023-05-20T07:29:45;13.10;99.90
38458;DHT22;24239;48.058;10.486;2023-05-20T07:32:13;13.20;99.90
38458;DHT22;24239;48.058;10.486;2023-05-20T07:34:39;13.30;99.90
38458;DHT22;24239;48.058;10.486;2023-05-20T07:37:06;13.10;99.90
38458;DHT22;24239;48.058;10.486;2023-05-20T07:39:34;13.10;99.90
38458;DHT22;24239;48.058;10.486;2023-05-20T07:42:00;13.10;99.90
38458;DHT22;24239;48.058;10.486;2023-05-20T07:44:25;13.10;99.90
38458;DHT22;24239;48.058;10.486;2023-05-20T07:46:51;13.30;99.90
38458;DHT22;24239;48.058;10.486;2023-05-20T07:49:17;13.40;99.90
38458;DHT22;24239;48.058;10.486;2023-05-20T07:51:42;13.40;99.90
38458;DHT22;24239;48.058;10.486;2023-05-20T07:54:08;13.50;99.90
38458;DHT22;24239;48.058;10.486;2023-05-20T07:56:34;13.60;99.90
38458;DHT22;24239;48.058;10.486;2023-05-20T07:58:59;13.60;99.90
38458;DHT22;24239;48.058;10.486;2023-05-20T08:01:27;13.70;99.90
38458;DHT22;24239;48.058;10.486;2023-05-20T08:03:53;13.80;99.90
38458;DHT22;24239;48.058;10.486;2023-05-20T08:06:19;14.00;99.90
38458;DHT22;24239;48.058;10.486;2023-05-20T08:08:45;13.90;99.90
38458;DHT22;24239;48.058;10.486;2023-05-20T08:11:12;13.90;99.90
38458;DHT22;24239;48.058;10.486;2023-05-20T08:13:38;13.70;99.90
38458;DHT22;24239;48.058;10.486;2023-05-20T08:16:06;13.80;99.90
38458;DHT22;24239;48.058;10.486;2023-05-20T08:18:34;13.90;99.90
38458;DHT22;24239;48.058;10.486;2023-05-20T08:21:00;14.00;99.90
38458;DHT22;24239;48.058;10.486;2023-05-20T08:23:29;14.00;99.90
38458;DHT22;24239;48.058;10.486;2023-05-20T08:25:55;14.20;99.90
38458;DHT22;24239;48.058;10.486;2023-05-20T08:28:29;14.20;99.90
38458;DHT22;24239;48.058;10.486;2023-05-20T08:30:56;14.20;99.90
38458;DHT22;24239;48.058;10.486;2023-05-20T08:33:23;14.30;99.90
38458;DHT22;24239;48.058;10.486;2023-05-20T08:35:51;14.40;99.90
38458;DHT22;24239;48.058;10.486;2023-05-20T08:38:18;14.50;99.90
38458;DHT22;24239;48.058;10.486;2023-05-20T08:40:43;14.50;99.90
38458;DHT22;24239;48.058;10.486;2023-05-20T08:43:09;14.50;99.90
38458;DHT22;24239;48.058;10.486;2023-05-20T08:45:36;14.30;99.90
38458;DHT22;24239;48.058;10.486;2023-05-20T08:48:04;14.30;99.90
38458;DHT22;24239;48.058;10.486;2023-05-20T08:50:30;14.20;99.90
38458;DHT22;24239;48.058;10.486;2023-05-20T08:52:57;14.10;99.90
38458;DHT22;24239;48.058;10.486;2023-05-20T08:57:49;14.10;99.90
38458;DHT22;24239;48.058;10.486;2023-05-20T09:00:16;14.40;99.90
38458;DHT22;24239;48.058;10.486;2023-05-20T09:02:45;14.30;99.90
38458;DHT22;24239;48.058;10.486;2023-05-20T09:05:13;14.40;99.90
38458;DHT22;24239;48.058;10.486;2023-05-20T09:07:41;14.50;99.90
38458;DHT22;24239;48.058;10.486;2023-05-20T09:10:08;14.70;99.90
38458;DHT22;24239;48.058;10.486;2023-05-20T09:12:34;14.60;99.90
38458;DHT22;24239;48.058;10.486;2023-05-20T09:15:01;14.70;99.90
38458;DHT22;24239;48.058;10.486;2023-05-20T09:17:27;14.50;99.90
38458;DHT22;24239;48.058;10.486;2023-05-20T09:19:54;14.60;99.90
38458;DHT22;24239;48.058;10.486;2023-05-20T09:22:23;14.70;99.90
38458;DHT22;24239;48.058;10.486;2023-05-20T09:24:54;14.90;99.90
38458;DHT22;24239;48.058;10.486;2023-05-20T09:27:20;15.20;99.90
38458;DHT22;24239;48.058;10.486;2023-05-20T09:29:47;15.40;99.90
38458;DHT22;24239;48.058;10.486;2023-05-20T09:32:13;15.30;99.90
38458;DHT22;24239;48.058;10.486;2023-05-20T09:34:39;15.20;99.90
38458;DHT22;24239;48.058;10.486;2023-05-20T09:37:07;15.20;99.90
38458;DHT22;24239;48.058;10.486;2023-05-20T09:39:36;15.30;99.90
38458;DHT22;24239;48.058;10.486;2023-05-20T09:42:10;15.30;99.90
38458;DHT22;24239;48.058;10.486;2023-05-20T09:44:36;15.50;99.90
38458;DHT22;24239;48.058;10.486;2023-05-20T09:47:05;15.50;99.90
38458;DHT22;24239;48.058;10.486;2023-05-20T09:49:32;15.80;99.90
38458;DHT22;24239;48.058;10.486;2023-05-20T09:51:59;16.20;99.90
38458;DHT22;24239;48.058;10.486;2023-05-20T09:54:27;16.50;99.90
38458;DHT22;24239;48.058;10.486;2023-05-20T09:56:53;16.40;99.90
38458;DHT22;24239;48.058;10.486;2023-05-20T09:59:20;16.30;99.90
38458;DHT22;24239;48.058;10.486;2023-05-20T10:01:46;16.20;99.90
38458;DHT22;24239;48.058;10.486;2023-05-20T10:04:12;16.10;99.90
38458;DHT22;24239;48.058;10.486;2023-05-20T10:06:44;15.70;99.90
38458;DHT22;24239;48.058;10.486;2023-05-20T10:11:47;15.80;99.90
38458;DHT22;24239;48.058;10.486;2023-05-20T10:17:06;15.50;99.90
38458;DHT22;24239;48.058;10.486;2023-05-20T10:19:37;15.50;99.90
38458;DHT22;24239;48.058;10.486;2023-05-20T10:22:04;15.60;99.90
38458;DHT22;24239;48.058;10.486;2023-05-20T10:24:31;15.70;99.90
38458;DHT22;24239;48.058;10.486;2023-05-20T10:26:57;15.80;99.90
38458;DHT22;24239;48.058;10.486;2023-05-20T10:29:23;16.00;99.90
38458;DHT22;24239;48.058;10.486;2023-05-20T10:31:49;16.10;99.90
38458;DHT22;24239;48.058;10.486;2023-05-20T10:34:16;16.00;99.90
38458;DHT22;24239;48.058;10.486;2023-05-20T10:36:45;16.00;99.90
38458;DHT22;24239;48.058;10.486;2023-05-20T10:39:15;16.10;99.90
38458;DHT22;24239;48.058;10.486;2023-05-20T10:41:44;16.10;99.90
38458;DHT22;24239;48.058;10.486;2023-05-20T10:44:11;16.60;99.90
38458;DHT22;24239;48.058;10.486;2023-05-20T10:46:36;16.80;99.90
38458;DHT22;24239;48.058;10.486;2023-05-20T10:49:04;16.90;99.90
38458;DHT22;24239;48.058;10.486;2023-05-20T10:51:30;17.00;99.90
38458;DHT22;24239;48.058;10.486;2023-05-20T10:53:58;17.30;99.90
38458;DHT22;24239;48.058;10.486;2023-05-20T10:56:24;17.30;99.90
38458;DHT22;24239;48.058;10.486;2023-05-20T10:58:52;17.40;99.90
38458;DHT22;24239;48.058;10.486;2023-05-20T11:01:23;17.30;99.90
38458;DHT22;24239;48.058;10.486;2023-05-20T11:03:49;17.20;99.90
38458;DHT22;24239;48.058;10.486;2023-05-20T11:06:17;17.30;99.90
38458;DHT22;24239;48.058;10.486;2023-05-20T11:08:45;17.40;99.90
38458;DHT22;24239;48.058;10.486;2023-05-20T11:11:14;17.50;99.90
38458;DHT22;24239;48.058;10.486;2023-05-20T11:13:40;17.60;99.90
38458;DHT22;24239;48.058;10.486;2023-05-20T11:16:06;17.80;99.90
38458;DHT22;24239;48.058;10.486;2023-05-20T11:18:33;17.90;99.90
38458;DHT22;24239;48.058;10.486;2023-05-20T11:21:01;18.00;99.90
38458;DHT22;24239;48.058;10.486;2023-05-20T11:23:30;18.00;99.90
38458;DHT22;24239;48.058;10.486;2023-05-20T11:25:56;17.90;99.90
38458;DHT22;24239;48.058;10.486;2023-05-20T11:28:24;18.10;99.90
38458;DHT22;24239;48.058;10.486;2023-05-20T11:30:54;18.30;99.90
38458;DHT22;24239;48.058;10.486;2023-05-20T11:33:24;18.60;99.90
38458;DHT22;24239;48.058;10.486;2023-05-20T11:35:52;18.70;99.90
38458;DHT22;24239;48.058;10.486;2023-05-20T11:38:19;18.70;99.90
38458;DHT22;24239;48.058;10.486;2023-05-20T11:40:51;18.80;99.90
38458;DHT22;24239;48.058;10.486;2023-05-20T11:43:22;18.90;99.90
38458;DHT22;24239;48.058;10.486;2023-05-20T11:45:53;18.80;99.90
38458;DHT22;24239;48.058;10.486;2023-05-20T11:48:22;18.60;99.90
38458;DHT22;24239;48.058;10.486;2023-05-20T11:50:49;18.50;99.90
38458;DHT22;24239;48.058;10.486;2023-05-20T11:53:18;18.40;99.90
38458;DHT22;24239;48.058;10.486;2023-05-20T11:58:17;18.20;99.90
38458;DHT22;24239;48.058;10.486;2023-05-20T12:00:43;18.40;99.90
38458;DHT22;24239;48.058;10.486;2023-05-20T12:03:09;18.60;99.90
38458;DHT22;24239;48.058;10.486;2023-05-20T12:05:36;18.80;99.90
38458;DHT22;24239;48.058;10.486;2023-05-20T12:08:03;19.10;99.90
38458;DHT22;24239;48.058;10.486;2023-05-20T12:10:30;19.10;99.90
38458;DHT22;24239;48.058;10.486;2023-05-20T12:12:59;19.30;99.90
38458;DHT22;24239;48.058;10.486;2023-05-20T12:15:25;19.50;99.90
38458;DHT22;24239;48.058;10.486;2023-05-20T12:17:53;19.40;99.90
38458;DHT22;24239;48.058;10.486;2023-05-20T12:20:20;19.40;99.90
38458;DHT22;24239;48.058;10.486;2023-05-20T12:22:49;19.20;99.90
38458;DHT22;24239;48.058;10.486;2023-05-20T12:25:16;19.40;99.90
38458;DHT22;24239;48.058;10.486;2023-05-20T12:27:43;19.60;99.90
38458;DHT22;24239;48.058;10.486;2023-05-20T12:30:14;19.70;99.90
38458;DHT22;24239;48.058;10.486;2023-05-20T12:32:41;19.50;99.90
38458;DHT22;24239;48.058;10.486;2023-05-20T12:35:07;19.40;99.90
38458;DHT22;24239;48.058;10.486;2023-05-20T12:37:35;19.40;99.90
38458;DHT22;24239;48.058;10.486;2023-05-20T12:40:02;19.30;99.90
38458;DHT22;24239;48.058;10.486;2023-05-20T12:42:36;19.40;99.90
38458;DHT22;24239;48.058;10.486;2023-05-20T12:45:04;19.60;99.90
38458;DHT22;24239;48.058;10.486;2023-05-20T12:47:32;19.70;99.90
38458;DHT22;24239;48.058;10.486;2023-05-20T12:50:02;19.80;99.90
38458;DHT22;24239;48.058;10.486;2023-05-20T12:52:29;20.00;99.90
38458;DHT22;24239;48.058;10.486;2023-05-20T12:54:56;20.10;99.90
38458;DHT22;24239;48.058;10.486;2023-05-20T12:57:24;20.10;99.90
38458;DHT22;24239;48.058;10.486;2023-05-20T12:59:50;20.20;99.90
38458;DHT22;24239;48.058;10.486;2023-05-20T13:02:15;20.40;99.90
38458;DHT22;24239;48.058;10.486;2023-05-20T13:04:41;20.40;99.90
38458;DHT22;24239;48.058;10.486;2023-05-20T13:07:07;20.40;99.90
38458;DHT22;24239;48.058;10.486;2023-05-20T13:09:34;20.50;99.90
38458;DHT22;24239;48.058;10.486;2023-05-20T13:12:08;20.40;99.90
38458;DHT22;24239;48.058;10.486;2023-05-20T13:14:36;20.40;99.90
38458;DHT22;24239;48.058;10.486;2023-05-20T13:17:02;20.40;99.90
38458;DHT22;24239;48.058;10.486;2023-05-20T13:19:28;20.50;99.90
38458;DHT22;24239;48.058;10.486;2023-05-20T13:21:57;20.70;99.90
38458;DHT22;24239;48.058;10.486;2023-05-20T13:24:23;20.80;99.90
38458;DHT22;24239;48.058;10.486;2023-05-20T13:26:51;20.90;99.90
38458;DHT22;24239;48.058;10.486;2023-05-20T13:29:19;21.00;99.90
38458;DHT22;24239;48.058;10.486;2023-05-20T13:31:45;21.00;99.90
38458;DHT22;24239;48.058;10.486;2023-05-20T13:34:12;20.90;99.90
38458;DHT22;24239;48.058;10.486;2023-05-20T13:36:39;20.90;99.90
38458;DHT22;24239;48.058;10.486;2023-05-20T13:39:06;20.90;99.90
38458;DHT22;24239;48.058;10.486;2023-05-20T13:41:33;20.90;99.90
38458;DHT22;24239;48.058;10.486;2023-05-20T13:44:00;20.90;99.90
38458;DHT22;24239;48.058;10.486;2023-05-20T13:46:29;20.90;99.90
38458;DHT22;24239;48.058;10.486;2023-05-20T13:48:57;20.90;99.90
38458;DHT22;24239;48.058;10.486;2023-05-20T13:51:23;21.00;99.90
38458;DHT22;24239;48.058;10.486;2023-05-20T13:53:49;21.10;99.90
38458;DHT22;24239;48.058;10.486;2023-05-20T13:56:16;21.10;99.90
38458;DHT22;24239;48.058;10.486;2023-05-20T13:58:42;21.20;99.90
38458;DHT22;24239;48.058;10.486;2023-05-20T14:01:09;21.30;99.90
38458;DHT22;24239;48.058;10.486;2023-05-20T14:03:37;21.40;99.90
38458;DHT22;24239;48.058;10.486;2023-05-20T14:06:05;21.40;99.90
38458;DHT22;24239;48.058;10.486;2023-05-20T14:08:30;21.60;99.90
38458;DHT22;24239;48.058;10.486;2023-05-20T14:10:56;21.50;99.90
38458;DHT22;24239;48.058;10.486;2023-05-20T14:13:22;21.40;99.90
38458;DHT22;24239;48.058;10.486;2023-05-20T14:18:35;21.40;99.90
38458;DHT22;24239;48.058;10.486;2023-05-20T14:21:03;21.30;99.90
38458;DHT22;24239;48.058;10.486;2023-05-20T14:23:32;21.40;99.90
38458;DHT22;24239;48.058;10.486;2023-05-20T14:26:00;21.30;99.90
38458;DHT22;24239;48.058;10.486;2023-05-20T14:28:25;21.50;99.90
38458;DHT22;24239;48.058;10.486;2023-05-20T14:30:51;21.80;99.90
38458;DHT22;24239;48.058;10.486;2023-05-20T14:33:17;22.10;99.90
38458;DHT22;24239;48.058;10.486;2023-05-20T14:35:43;22.40;99.90
38458;DHT22;24239;48.058;10.486;2023-05-20T14:38:09;22.40;99.90
38458;DHT22;24239;48.058;10.486;2023-05-20T14:40:34;22.70;99.90
38458;DHT22;24239;48.058;10.486;2023-05-20T14:43:03;22.90;99.90
38458;DHT22;24239;48.058;10.486;2023-05-20T14:45:28;22.90;99.90
38458;DHT22;24239;48.058;10.486;2023-05-20T14:47:55;23.10;99.90
38458;DHT22;24239;48.058;10.486;2023-05-20T14:50:21;23.10;99.90
38458;DHT22;24239;48.058;10.486;2023-05-20T14:52:47;23.10;99.90
38458;DHT22;24239;48.058;10.486;2023-05-20T14:55:12;22.60;99.90
38458;DHT22;24239;48.058;10.486;2023-05-20T14:57:39;22.40;99.90
38458;DHT22;24239;48.058;10.486;2023-05-20T15:00:05;22.40;99.90
38458;DHT22;24239;48.058;10.486;2023-05-20T15:02:30;22.40;99.90
38458;DHT22;24239;48.058;10.486;2023-05-20T15:04:56;22.40;99.90
38458;DHT22;24239;48.058;10.486;2023-05-20T15:07:22;22.40;99.90
38458;DHT22;24239;48.058;10.486;2023-05-20T15:09:48;22.60;99.90
38458;DHT22;24239;48.058;10.486;2023-05-20T15:12:14;22.70;99.90
38458;DHT22;24239;48.058;10.486;2023-05-20T15:14:41;22.50;99.90
38458;DHT22;24239;48.058;10.486;2023-05-20T15:17:06;22.60;99.90
38458;DHT22;24239;48.058;10.486;2023-05-20T15:19:32;22.50;99.90
38458;DHT22;24239;48.058;10.486;2023-05-20T15:21:58;22.50;99.90
38458;DHT22;24239;48.058;10.486;2023-05-20T15:24:25;22.50;99.90
38458;DHT22;24239;48.058;10.486;2023-05-20T15:26:51;22.40;99.90
38458;DHT22;24239;48.058;10.486;2023-05-20T15:29:17;22.30;99.90